Santa Teresa, NM (88008)

6:30 PM MST on February 05, 2016 (GMT -0700)
Carvel acres | | Change Station
CLOSE
Current Station
Personal Weather Station
Location: El Paso, TX
Elevation: 3743 ft
Nearby Weather Stations

Elev 3743 ft 31.85 °N, 106.62 °W | Updated 12 minutes ago

Clear
Clear
46.4 °F
Feels Like 45 °F
N
4.2
Wind Variable Wind from NE

Today
High -- | Low -- °F
--% Chance of Precip.
Yesterday
High -- | Low -- °F
Precip. -- in
Pressure 30.35 in
Visibility 8.0 miles
Clouds Clear
Windchill 45 °F
Dew Point 4 °F
Humidity 17%
Rainfall 0.00 in
Snow Depth Not available.
6:57 AM 5:44 PM
Waning Crescent, 8% visible
METAR KBIF 060058Z AUTO 28009KT 8SM CLR 08/M22 A3034 RMK AO2 SLP277 T00751218 $
Pressure 30.35 in
Visibility 8.0 miles
Clouds Clear
Windchill 45 °F
Dew Point 4 °F
Humidity 17%
Rainfall 0.00 in
Snow Depth Not available.
6:57 AM 5:44 PM
Waning Crescent, 8% visible
METAR KBIF 060058Z AUTO 28009KT 8SM CLR 08/M22 A3034 RMK AO2 SLP277 T00751218 $

10-Day Weather Forecast

Almanac

Astronomy

Feb. 05, 2016 Rise Set
Actual Time
Civil Twilight
Nautical Twilight
Astronomical Twilight
Moon
Length of Visible Light
Length of Day
Tomorrow will be .
, % of the Moon is Illuminated

Today's Extremes

State Highs State Lows

Community

WunderPhotos

Upload Photos

1,890,904 photos uploaded!

WunderBlog® & News

Nearby

Air Quality

  Air Quality AQ Index Pollutant
Not available.

Snow Depth

Station Depth Elevation

Earthquake Activity

City Distance Mag. Time & Date
Minimum magnitude displayed is 2.5.

Coastal Water Temperatures

Place Temperature

Stations

Nearby Weather Stations

Station Location Temp. Windchill Dew Point Humidity Wind Precip. Elev Updated Type
                   

Watches & Warnings

There are currently no watches in effect.